sensor_id;sensor_type;location;lat;lon;timestamp;pressure;altitude;pressure_sealevel;temperature;humidity
75855;BME280;64502;59.976;30.316;2023-12-29T00:00:31;99966.78;;;-0.42;79.82
75855;BME280;64502;59.976;30.316;2023-12-29T00:02:56;99955.66;;;-0.46;78.85
75855;BME280;64502;59.976;30.316;2023-12-29T00:05:21;99956.53;;;-0.47;78.61
75855;BME280;64502;59.976;30.316;2023-12-29T00:07:47;99962.56;;;-0.47;78.87
75855;BME280;64502;59.976;30.316;2023-12-29T00:10:13;99965.19;;;-0.48;79.24
75855;BME280;64502;59.976;30.316;2023-12-29T00:12:39;99954.88;;;-0.50;79.02
75855;BME280;64502;59.976;30.316;2023-12-29T00:15:04;99943.72;;;-0.52;78.77
75855;BME280;64502;59.976;30.316;2023-12-29T00:17:30;99942.03;;;-0.54;79.28
75855;BME280;64502;59.976;30.316;2023-12-29T00:19:57;99951.47;;;-0.52;79.77
75855;BME280;64502;59.976;30.316;2023-12-29T00:22:23;99945.41;;;-0.51;79.61
75855;BME280;64502;59.976;30.316;2023-12-29T00:24:50;99936.69;;;-0.48;79.40
75855;BME280;64502;59.976;30.316;2023-12-29T00:27:17;99942.66;;;-0.45;79.70
75855;BME280;64502;59.976;30.316;2023-12-29T00:29:42;99940.84;;;-0.41;79.61
75855;BME280;64502;59.976;30.316;2023-12-29T00:32:08;99938.16;;;-0.38;79.75
75855;BME280;64502;59.976;30.316;2023-12-29T00:34:33;99931.16;;;-0.34;78.75
75855;BME280;64502;59.976;30.316;2023-12-29T00:36:59;99923.28;;;-0.31;79.01
75855;BME280;64502;59.976;30.316;2023-12-29T00:39:25;99912.94;;;-0.31;78.41
75855;BME280;64502;59.976;30.316;2023-12-29T00:41:55;99919.84;;;-0.32;79.02
75855;BME280;64502;59.976;30.316;2023-12-29T00:44:23;99911.25;;;-0.34;78.77
75855;BME280;64502;59.976;30.316;2023-12-29T00:46:49;99907.00;;;-0.36;78.32
75855;BME280;64502;59.976;30.316;2023-12-29T00:49:15;99904.41;;;-0.36;78.81
75855;BME280;64502;59.976;30.316;2023-12-29T00:51:41;99903.56;;;-0.37;78.33
75855;BME280;64502;59.976;30.316;2023-12-29T00:54:07;99895.81;;;-0.37;78.41
75855;BME280;64502;59.976;30.316;2023-12-29T00:56:34;99888.88;;;-0.36;79.08
75855;BME280;64502;59.976;30.316;2023-12-29T00:59:03;99887.19;;;-0.37;78.87
75855;BME280;64502;59.976;30.316;2023-12-29T01:01:33;99885.44;;;-0.37;78.94
75855;BME280;64502;59.976;30.316;2023-12-29T01:04:01;99881.19;;;-0.39;79.11
75855;BME280;64502;59.976;30.316;2023-12-29T01:06:28;99869.13;;;-0.40;79.03
75855;BME280;64502;59.976;30.316;2023-12-29T01:08:55;99865.69;;;-0.41;78.87
75855;BME280;64502;59.976;30.316;2023-12-29T01:11:21;99859.72;;;-0.45;79.18
75855;BME280;64502;59.976;30.316;2023-12-29T01:13:46;99868.41;;;-0.46;79.12
75855;BME280;64502;59.976;30.316;2023-12-29T01:16:12;99855.44;;;-0.46;79.97
75855;BME280;64502;59.976;30.316;2023-12-29T01:18:37;99861.38;;;-0.42;79.75
75855;BME280;64502;59.976;30.316;2023-12-29T01:21:03;99863.84;;;-0.37;79.63
75855;BME280;64502;59.976;30.316;2023-12-29T01:23:29;99862.00;;;-0.32;79.44
75855;BME280;64502;59.976;30.316;2023-12-29T01:25:54;99854.06;;;-0.28;79.47
75855;BME280;64502;59.976;30.316;2023-12-29T01:28:20;99853.13;;;-0.25;78.91
75855;BME280;64502;59.976;30.316;2023-12-29T01:30:46;99847.16;;;-0.27;78.83
75855;BME280;64502;59.976;30.316;2023-12-29T01:33:12;99846.25;;;-0.26;78.92
75855;BME280;64502;59.976;30.316;2023-12-29T01:35:38;99844.50;;;-0.26;78.97
75855;BME280;64502;59.976;30.316;2023-12-29T01:38:04;99832.50;;;-0.28;79.01
75855;BME280;64502;59.976;30.316;2023-12-29T01:40:29;99831.66;;;-0.29;78.83
75855;BME280;64502;59.976;30.316;2023-12-29T01:42:55;99834.22;;;-0.27;78.91
75855;BME280;64502;59.976;30.316;2023-12-29T01:45:24;99826.44;;;-0.27;78.53
75855;BME280;64502;59.976;30.316;2023-12-29T01:47:51;99823.78;;;-0.26;78.48
75855;BME280;64502;59.976;30.316;2023-12-29T01:50:19;99830.63;;;-0.23;78.29
75855;BME280;64502;59.976;30.316;2023-12-29T01:52:48;99819.41;;;-0.24;78.20
75855;BME280;64502;59.976;30.316;2023-12-29T01:55:18;99817.66;;;-0.23;78.59
75855;BME280;64502;59.976;30.316;2023-12-29T01:57:45;99814.22;;;-0.24;78.58
75855;BME280;64502;59.976;30.316;2023-12-29T02:00:12;99814.22;;;-0.24;78.34
75855;BME280;64502;59.976;30.316;2023-12-29T02:02:40;99814.22;;;-0.24;78.56
75855;BME280;64502;59.976;30.316;2023-12-29T02:05:06;99809.06;;;-0.25;78.04
75855;BME280;64502;59.976;30.316;2023-12-29T02:07:32;99810.88;;;-0.27;78.62
75855;BME280;64502;59.976;30.316;2023-12-29T02:09:58;99816.09;;;-0.29;78.13
75855;BME280;64502;59.976;30.316;2023-12-29T02:12:25;99815.19;;;-0.28;78.75
75855;BME280;64502;59.976;30.316;2023-12-29T02:14:51;99813.47;;;-0.27;78.77
75855;BME280;64502;59.976;30.316;2023-12-29T02:17:24;99808.22;;;-0.26;78.59
75855;BME280;64502;59.976;30.316;2023-12-29T02:19:51;99808.28;;;-0.27;78.80
75855;BME280;64502;59.976;30.316;2023-12-29T02:22:17;99805.69;;;-0.27;78.53
75855;BME280;64502;59.976;30.316;2023-12-29T02:24:47;99805.69;;;-0.27;78.24
75855;BME280;64502;59.976;30.316;2023-12-29T02:27:21;99806.56;;;-0.28;78.22
75855;BME280;64502;59.976;30.316;2023-12-29T02:29:53;99802.09;;;-0.23;78.70
75855;BME280;64502;59.976;30.316;2023-12-29T02:32:22;99800.50;;;-0.27;78.32
75855;BME280;64502;59.976;30.316;2023-12-29T02:34:49;99797.13;;;-0.31;78.51
75855;BME280;64502;59.976;30.316;2023-12-29T02:37:16;99801.44;;;-0.30;78.40
75855;BME280;64502;59.976;30.316;2023-12-29T02:39:41;99788.50;;;-0.31;78.46
75855;BME280;64502;59.976;30.316;2023-12-29T02:42:07;99793.75;;;-0.33;78.60
75855;BME280;64502;59.976;30.316;2023-12-29T02:44:33;99788.59;;;-0.34;77.86
75855;BME280;64502;59.976;30.316;2023-12-29T02:46:58;99797.44;;;-0.41;77.91
75855;BME280;64502;59.976;30.316;2023-12-29T02:49:26;99793.19;;;-0.44;78.54
75855;BME280;64502;59.976;30.316;2023-12-29T02:51:52;99786.28;;;-0.43;78.55
75855;BME280;64502;59.976;30.316;2023-12-29T02:54:17;99783.69;;;-0.43;78.55
75855;BME280;64502;59.976;30.316;2023-12-29T02:56:43;99782.81;;;-0.44;78.67
75855;BME280;64502;59.976;30.316;2023-12-29T02:59:08;99791.53;;;-0.47;78.31
75855;BME280;64502;59.976;30.316;2023-12-29T03:01:35;99788.94;;;-0.47;78.27
75855;BME280;64502;59.976;30.316;2023-12-29T03:04:01;99787.25;;;-0.48;79.24
75855;BME280;64502;59.976;30.316;2023-12-29T03:06:26;99782.13;;;-0.49;78.36
75855;BME280;64502;59.976;30.316;2023-12-29T03:08:52;99781.34;;;-0.53;78.84
75855;BME280;64502;59.976;30.316;2023-12-29T03:11:18;99789.19;;;-0.56;78.98
75855;BME280;64502;59.976;30.316;2023-12-29T03:13:43;99784.09;;;-0.57;79.31
75855;BME280;64502;59.976;30.316;2023-12-29T03:16:09;99783.19;;;-0.56;79.33
75855;BME280;64502;59.976;30.316;2023-12-29T03:18:34;99782.28;;;-0.55;79.34
75855;BME280;64502;59.976;30.316;2023-12-29T03:21:04;99777.09;;;-0.55;79.88
75855;BME280;64502;59.976;30.316;2023-12-29T03:23:30;99770.97;;;-0.53;79.50
75855;BME280;64502;59.976;30.316;2023-12-29T03:25:55;99768.44;;;-0.54;79.16
75855;BME280;64502;59.976;30.316;2023-12-29T03:28:21;99768.44;;;-0.54;79.48
75855;BME280;64502;59.976;30.316;2023-12-29T03:30:46;99771.06;;;-0.56;79.16
75855;BME280;64502;59.976;30.316;2023-12-29T03:33:12;99783.94;;;-0.53;79.26
75855;BME280;64502;59.976;30.316;2023-12-29T03:35:37;99785.59;;;-0.50;79.90
75855;BME280;64502;59.976;30.316;2023-12-29T03:38:03;99781.16;;;-0.47;79.36
75855;BME280;64502;59.976;30.316;2023-12-29T03:40:29;99781.94;;;-0.43;79.29
75855;BME280;64502;59.976;30.316;2023-12-29T03:42:54;99772.41;;;-0.41;78.89
75855;BME280;64502;59.976;30.316;2023-12-29T03:45:20;99774.97;;;-0.41;78.93
75855;BME280;64502;59.976;30.316;2023-12-29T03:47:45;99774.94;;;-0.39;79.21
75855;BME280;64502;59.976;30.316;2023-12-29T03:50:11;99779.25;;;-0.40;78.89
75855;BME280;64502;59.976;30.316;2023-12-29T03:52:38;99777.72;;;-0.47;78.51
75855;BME280;64502;59.976;30.316;2023-12-29T03:55:04;99776.97;;;-0.51;79.13
75855;BME280;64502;59.976;30.316;2023-12-29T03:57:30;99770.13;;;-0.53;79.28
75855;BME280;64502;59.976;30.316;2023-12-29T03:59:55;99769.19;;;-0.51;78.98
75855;BME280;64502;59.976;30.316;2023-12-29T04:02:21;99771.75;;;-0.49;79.50
75855;BME280;64502;59.976;30.316;2023-12-29T04:04:47;99770.84;;;-0.48;78.74
75855;BME280;64502;59.976;30.316;2023-12-29T04:07:13;99763.94;;;-0.48;79.13
75855;BME280;64502;59.976;30.316;2023-12-29T04:09:38;99753.63;;;-0.49;78.47
75855;BME280;64502;59.976;30.316;2023-12-29T04:12:04;99756.25;;;-0.51;79.22
75855;BME280;64502;59.976;30.316;2023-12-29T04:14:30;99754.50;;;-0.50;79.17
75855;BME280;64502;59.976;30.316;2023-12-29T04:16:55;99742.34;;;-0.48;78.94
75855;BME280;64502;59.976;30.316;2023-12-29T04:19:21;99734.50;;;-0.47;78.59
75855;BME280;64502;59.976;30.316;2023-12-29T04:21:46;99724.16;;;-0.47;78.22
75855;BME280;64502;59.976;30.316;2023-12-29T04:24:12;99725.13;;;-0.49;78.26
75855;BME280;64502;59.976;30.316;2023-12-29T04:26:37;99733.75;;;-0.50;78.40
75855;BME280;64502;59.976;30.316;2023-12-29T04:29:03;99734.66;;;-0.51;78.26
75855;BME280;64502;59.976;30.316;2023-12-29T04:31:28;99729.50;;;-0.51;78.56
75855;BME280;64502;59.976;30.316;2023-12-29T04:33:54;99722.59;;;-0.52;78.20
75855;BME280;64502;59.976;30.316;2023-12-29T04:36:20;99721.00;;;-0.56;78.05
75855;BME280;64502;59.976;30.316;2023-12-29T04:38:45;99716.03;;;-0.64;78.33
75855;BME280;64502;59.976;30.316;2023-12-29T04:41:14;99717.81;;;-0.66;78.70
75855;BME280;64502;59.976;30.316;2023-12-29T04:43:40;99729.97;;;-0.68;78.12
75855;BME280;64502;59.976;30.316;2023-12-29T04:46:05;99725.66;;;-0.69;78.88
75855;BME280;64502;59.976;30.316;2023-12-29T04:48:31;99732.50;;;-0.67;79.03
75855;BME280;64502;59.976;30.316;2023-12-29T04:50:56;99728.03;;;-0.61;79.16
75855;BME280;64502;59.976;30.316;2023-12-29T04:53:22;99712.38;;;-0.57;78.90
75855;BME280;64502;59.976;30.316;2023-12-29T04:55:47;99706.28;;;-0.56;78.43
75855;BME280;64502;59.976;30.316;2023-12-29T04:58:13;99706.19;;;-0.53;78.95
75855;BME280;64502;59.976;30.316;2023-12-29T05:00:39;99707.84;;;-0.50;78.84
75855;BME280;64502;59.976;30.316;2023-12-29T05:03:04;99703.41;;;-0.47;78.72
75855;BME280;64502;59.976;30.316;2023-12-29T05:05:30;99711.16;;;-0.45;78.75
75855;BME280;64502;59.976;30.316;2023-12-29T05:07:58;99706.91;;;-0.48;78.06
75855;BME280;64502;59.976;30.316;2023-12-29T05:10:23;99719.03;;;-0.48;78.83
75855;BME280;64502;59.976;30.316;2023-12-29T05:12:49;99712.84;;;-0.44;78.78
75855;BME280;64502;59.976;30.316;2023-12-29T05:15:14;99712.72;;;-0.39;78.48
75855;BME280;64502;59.976;30.316;2023-12-29T05:17:40;99711.78;;;-0.37;78.19
75855;BME280;64502;59.976;30.316;2023-12-29T05:20:07;99703.97;;;-0.35;77.96
75855;BME280;64502;59.976;30.316;2023-12-29T05:22:32;99706.50;;;-0.34;78.38
75855;BME280;64502;59.976;30.316;2023-12-29T05:24:58;99707.34;;;-0.33;78.19
75855;BME280;64502;59.976;30.316;2023-12-29T05:27:26;99702.13;;;-0.32;78.06
75855;BME280;64502;59.976;30.316;2023-12-29T05:29:52;99707.31;;;-0.32;78.10
75855;BME280;64502;59.976;30.316;2023-12-29T05:32:17;99696.13;;;-0.32;77.82
75855;BME280;64502;59.976;30.316;2023-12-29T05:34:43;99693.53;;;-0.32;77.68
75855;BME280;64502;59.976;30.316;2023-12-29T05:37:08;99698.63;;;-0.31;77.82
75855;BME280;64502;59.976;30.316;2023-12-29T05:39:34;99702.06;;;-0.30;78.39
75855;BME280;64502;59.976;30.316;2023-12-29T05:41:59;99684.81;;;-0.30;77.89
75855;BME280;64502;59.976;30.316;2023-12-29T05:44:25;99682.31;;;-0.33;77.65
75855;BME280;64502;59.976;30.316;2023-12-29T05:46:51;99673.63;;;-0.32;78.21
75855;BME280;64502;59.976;30.316;2023-12-29T05:49:16;99675.41;;;-0.34;77.88
75855;BME280;64502;59.976;30.316;2023-12-29T05:51:43;99683.19;;;-0.34;77.83
75855;BME280;64502;59.976;30.316;2023-12-29T05:54:09;99686.72;;;-0.36;78.39
75855;BME280;64502;59.976;30.316;2023-12-29T05:56:34;99691.97;;;-0.38;77.54
75855;BME280;64502;59.976;30.316;2023-12-29T05:59:00;99707.44;;;-0.36;78.41
75855;BME280;64502;59.976;30.316;2023-12-29T06:01:25;99717.78;;;-0.35;77.79
75855;BME280;64502;59.976;30.316;2023-12-29T06:03:51;99716.88;;;-0.34;77.50
75855;BME280;64502;59.976;30.316;2023-12-29T06:06:16;99719.47;;;-0.34;77.94
75855;BME280;64502;59.976;30.316;2023-12-29T06:08:43;99719.56;;;-0.37;78.19
75855;BME280;64502;59.976;30.316;2023-12-29T06:11:08;99724.66;;;-0.34;78.30
75855;BME280;64502;59.976;30.316;2023-12-29T06:13:34;99723.72;;;-0.31;78.28
75855;BME280;64502;59.976;30.316;2023-12-29T06:16:00;99728.81;;;-0.28;77.57
75855;BME280;64502;59.976;30.316;2023-12-29T06:18:26;99736.56;;;-0.27;78.20
75855;BME280;64502;59.976;30.316;2023-12-29T06:20:51;99747.66;;;-0.23;77.63
75855;BME280;64502;59.976;30.316;2023-12-29T06:23:16;99751.25;;;-0.27;77.33
75855;BME280;64502;59.976;30.316;2023-12-29T06:25:42;99740.94;;;-0.30;77.09
75855;BME280;64502;59.976;30.316;2023-12-29T06:28:08;99737.59;;;-0.32;77.71
75855;BME280;64502;59.976;30.316;2023-12-29T06:30:33;99742.75;;;-0.32;78.05
75855;BME280;64502;59.976;30.316;2023-12-29T06:32:59;99747.94;;;-0.32;77.98
75855;BME280;64502;59.976;30.316;2023-12-29T06:35:24;99746.19;;;-0.32;77.60
75855;BME280;64502;59.976;30.316;2023-12-29T06:37:50;99745.34;;;-0.32;77.81
75855;BME280;64502;59.976;30.316;2023-12-29T06:40:16;99747.09;;;-0.33;77.80
75855;BME280;64502;59.976;30.316;2023-12-29T06:42:43;99752.19;;;-0.30;78.37
75855;BME280;64502;59.976;30.316;2023-12-29T06:45:08;99751.28;;;-0.29;78.21
75855;BME280;64502;59.976;30.316;2023-12-29T06:47:34;99753.03;;;-0.29;77.76
75855;BME280;64502;59.976;30.316;2023-12-29T06:50:00;99752.13;;;-0.28;78.31
75855;BME280;64502;59.976;30.316;2023-12-29T06:52:27;99756.47;;;-0.29;77.50
75855;BME280;64502;59.976;30.316;2023-12-29T06:54:55;99759.91;;;-0.28;78.03
75855;BME280;64502;59.976;30.316;2023-12-29T06:57:20;99767.69;;;-0.28;77.68
75855;BME280;64502;59.976;30.316;2023-12-29T06:59:46;99762.50;;;-0.28;77.64
75855;BME280;64502;59.976;30.316;2023-12-29T07:02:11;99740.91;;;-0.29;77.96
75855;BME280;64502;59.976;30.316;2023-12-29T07:04:41;99739.97;;;-0.26;77.85
75855;BME280;64502;59.976;30.316;2023-12-29T07:07:06;99747.66;;;-0.23;77.64
75855;BME280;64502;59.976;30.316;2023-12-29T07:09:43;99744.97;;;-0.20;77.93
75855;BME280;64502;59.976;30.316;2023-12-29T07:12:14;99741.44;;;-0.17;77.86
75855;BME280;64502;59.976;30.316;2023-12-29T07:14:46;99746.59;;;-0.16;77.35
75855;BME280;64502;59.976;30.316;2023-12-29T07:17:12;99757.81;;;-0.15;77.24
75855;BME280;64502;59.976;30.316;2023-12-29T07:19:39;99768.19;;;-0.15;77.40
75855;BME280;64502;59.976;30.316;2023-12-29T07:22:08;99761.25;;;-0.15;77.96
75855;BME280;64502;59.976;30.316;2023-12-29T07:24:36;99764.59;;;-0.11;78.33
75855;BME280;64502;59.976;30.316;2023-12-29T07:27:03;99755.03;;;-0.09;77.18
75855;BME280;64502;59.976;30.316;2023-12-29T07:29:28;99751.59;;;-0.10;76.70
75855;BME280;64502;59.976;30.316;2023-12-29T07:31:54;99757.72;;;-0.12;77.63
75855;BME280;64502;59.976;30.316;2023-12-29T07:34:21;99757.69;;;-0.11;77.51
75855;BME280;64502;59.976;30.316;2023-12-29T07:36:47;99749.00;;;-0.10;76.81
75855;BME280;64502;59.976;30.316;2023-12-29T07:39:13;99759.34;;;-0.08;77.56
75855;BME280;64502;59.976;30.316;2023-12-29T07:41:44;99760.13;;;-0.06;77.10
75855;BME280;64502;59.976;30.316;2023-12-29T07:44:11;99760.09;;;-0.05;77.01
75855;BME280;64502;59.976;30.316;2023-12-29T07:46:40;99758.34;;;-0.04;77.10
75855;BME280;64502;59.976;30.316;2023-12-29T07:49:06;99751.31;;;-0.01;77.04
75855;BME280;64502;59.976;30.316;2023-12-29T07:51:31;99758.25;;;-0.01;77.17
75855;BME280;64502;59.976;30.316;2023-12-29T07:53:57;99753.97;;;-0.02;77.18
75855;BME280;64502;59.976;30.316;2023-12-29T07:56:23;99747.03;;;-0.02;76.89
75855;BME280;64502;59.976;30.316;2023-12-29T07:58:48;99747.13;;;-0.05;76.73
75855;BME280;64502;59.976;30.316;2023-12-29T08:01:14;99748.91;;;-0.07;77.18
75855;BME280;64502;59.976;30.316;2023-12-29T08:03:39;99759.25;;;-0.05;77.22
75855;BME280;64502;59.976;30.316;2023-12-29T08:06:05;99753.19;;;-0.06;77.21
75855;BME280;64502;59.976;30.316;2023-12-29T08:08:31;99745.38;;;-0.04;77.07
75855;BME280;64502;59.976;30.316;2023-12-29T08:10:56;99751.38;;;-0.02;77.13
75855;BME280;64502;59.976;30.316;2023-12-29T08:13:22;99755.75;;;-0.04;76.15
75855;BME280;64502;59.976;30.316;2023-12-29T08:15:49;99747.34;;;-0.12;76.26
75855;BME280;64502;59.976;30.316;2023-12-29T08:18:16;99749.97;;;-0.14;77.93
75855;BME280;64502;59.976;30.316;2023-12-29T08:20:43;99752.50;;;-0.11;77.60
75855;BME280;64502;59.976;30.316;2023-12-29T08:23:08;99759.19;;;-0.04;78.00
75855;BME280;64502;59.976;30.316;2023-12-29T08:25:34;99762.47;;;0.03;77.72
75855;BME280;64502;59.976;30.316;2023-12-29T08:28:02;99767.47;;;0.08;77.32
75855;BME280;64502;59.976;30.316;2023-12-29T08:30:27;99766.59;;;0.09;76.20
75855;BME280;64502;59.976;30.316;2023-12-29T08:32:53;99765.78;;;0.07;77.02
75855;BME280;64502;59.976;30.316;2023-12-29T08:35:18;99758.94;;;0.06;77.22
75855;BME280;64502;59.976;30.316;2023-12-29T08:37:44;99755.53;;;0.04;77.12
75855;BME280;64502;59.976;30.316;2023-12-29T08:40:10;99751.22;;;0.03;77.32
75855;BME280;64502;59.976;30.316;2023-12-29T08:42:35;99749.53;;;0.02;77.11
75855;BME280;64502;59.976;30.316;2023-12-29T08:45:01;99747.78;;;0.02;76.85
75855;BME280;64502;59.976;30.316;2023-12-29T08:47:26;99746.94;;;0.02;77.19
75855;BME280;64502;59.976;30.316;2023-12-29T08:49:52;99752.94;;;0.04;77.74
75855;BME280;64502;59.976;30.316;2023-12-29T08:52:20;99741.66;;;0.05;76.74
75855;BME280;64502;59.976;30.316;2023-12-29T08:54:45;99743.38;;;0.06;77.10
75855;BME280;64502;59.976;30.316;2023-12-29T08:57:11;99743.44;;;0.03;76.79
75855;BME280;64502;59.976;30.316;2023-12-29T08:59:37;99744.31;;;0.03;76.93
75855;BME280;64502;59.976;30.316;2023-12-29T09:02:03;99740.81;;;0.04;77.11
75855;BME280;64502;59.976;30.316;2023-12-29T09:04:31;99742.47;;;0.07;77.23
75855;BME280;64502;59.976;30.316;2023-12-29T09:06:57;99735.50;;;0.07;76.90
75855;BME280;64502;59.976;30.316;2023-12-29T09:09:23;99734.56;;;0.10;76.39
75855;BME280;64502;59.976;30.316;2023-12-29T09:11:48;99741.66;;;0.05;76.39
75855;BME280;64502;59.976;30.316;2023-12-29T09:14:14;99739.97;;;0.04;76.86
75855;BME280;64502;59.976;30.316;2023-12-29T09:16:40;99726.94;;;0.05;77.12
75855;BME280;64502;59.976;30.316;2023-12-29T09:19:07;99727.69;;;0.09;76.88
75855;BME280;64502;59.976;30.316;2023-12-29T09:21:33;99724.09;;;0.13;76.35
75855;BME280;64502;59.976;30.316;2023-12-29T09:23:59;99723.34;;;0.09;76.55
75855;BME280;64502;59.976;30.316;2023-12-29T09:26:24;99710.31;;;0.11;77.23
75855;BME280;64502;59.976;30.316;2023-12-29T09:28:50;99718.06;;;0.12;77.61
75855;BME280;64502;59.976;30.316;2023-12-29T09:31:15;99718.91;;;0.13;76.89
75855;BME280;64502;59.976;30.316;2023-12-29T09:33:41;99718.91;;;0.13;76.71
75855;BME280;64502;59.976;30.316;2023-12-29T09:36:07;99721.50;;;0.13;76.71
75855;BME280;64502;59.976;30.316;2023-12-29T09:38:33;99713.72;;;0.13;76.21
75855;BME280;64502;59.976;30.316;2023-12-29T09:41:01;99722.34;;;0.13;77.59
75855;BME280;64502;59.976;30.316;2023-12-29T09:43:31;99724.94;;;0.13;77.13
75855;BME280;64502;59.976;30.316;2023-12-29T09:45:58;99723.28;;;0.11;76.47
75855;BME280;64502;59.976;30.316;2023-12-29T09:48:26;99724.31;;;0.07;76.21
75855;BME280;64502;59.976;30.316;2023-12-29T09:50:52;99713.28;;;0.00;76.97
75855;BME280;64502;59.976;30.316;2023-12-29T09:53:20;99711.56;;;-0.01;77.13
75855;BME280;64502;59.976;30.316;2023-12-29T09:55:48;99711.63;;;-0.03;77.07
75855;BME280;64502;59.976;30.316;2023-12-29T09:58:15;99715.94;;;-0.03;77.59
75855;BME280;64502;59.976;30.316;2023-12-29T10:00:43;99711.69;;;-0.06;77.10
75855;BME280;64502;59.976;30.316;2023-12-29T10:03:11;99712.69;;;-0.10;76.98
75855;BME280;64502;59.976;30.316;2023-12-29T10:05:37;99705.78;;;-0.09;77.62
75855;BME280;64502;59.976;30.316;2023-12-29T10:08:04;99699.72;;;-0.08;77.33
75855;BME280;64502;59.976;30.316;2023-12-29T10:10:33;99694.47;;;-0.07;77.51
75855;BME280;64502;59.976;30.316;2023-12-29T10:13:01;99693.50;;;-0.04;77.00
75855;BME280;64502;59.976;30.316;2023-12-29T10:18:42;99675.16;;;0.02;77.58
75855;BME280;64502;59.976;30.316;2023-12-29T10:21:29;99674.22;;;0.05;77.08
75855;BME280;64502;59.976;30.316;2023-12-29T10:24:06;99678.53;;;0.06;77.24
75855;BME280;64502;59.976;30.316;2023-12-29T10:26:34;99675.06;;;0.05;77.50
75855;BME280;64502;59.976;30.316;2023-12-29T10:29:02;99672.53;;;0.04;77.01
75855;BME280;64502;59.976;30.316;2023-12-29T10:31:27;99672.47;;;0.05;77.05
75855;BME280;64502;59.976;30.316;2023-12-29T10:34:22;99668.09;;;0.07;76.87
75855;BME280;64502;59.976;30.316;2023-12-29T10:36:58;99670.91;;;-0.01;76.54
75855;BME280;64502;59.976;30.316;2023-12-29T10:39:25;99677.13;;;-0.05;76.87
75855;BME280;64502;59.976;30.316;2023-12-29T10:42:03;99682.34;;;-0.06;77.51
75855;BME280;64502;59.976;30.316;2023-12-29T10:44:30;99679.19;;;-0.16;76.63
75855;BME280;64502;59.976;30.316;2023-12-29T10:46:56;99679.47;;;-0.25;77.20
75855;BME280;64502;59.976;30.316;2023-12-29T10:49:22;99677.81;;;-0.28;78.21
75855;BME280;64502;59.976;30.316;2023-12-29T10:51:47;99682.97;;;-0.26;78.14
75855;BME280;64502;59.976;30.316;2023-12-29T10:54:20;99680.25;;;-0.21;78.20
75855;BME280;64502;59.976;30.316;2023-12-29T10:57:02;99684.47;;;-0.19;77.80
75855;BME280;64502;59.976;30.316;2023-12-29T10:59:28;99687.94;;;-0.20;77.75
75855;BME280;64502;59.976;30.316;2023-12-29T11:01:55;99684.53;;;-0.22;78.32
75855;BME280;64502;59.976;30.316;2023-12-29T11:04:23;99675.81;;;-0.19;78.06
75855;BME280;64502;59.976;30.316;2023-12-29T11:06:49;99662.84;;;-0.18;78.20
75855;BME280;64502;59.976;30.316;2023-12-29T11:09:32;99654.91;;;-0.13;77.94
75855;BME280;64502;59.976;30.316;2023-12-29T11:12:03;99662.59;;;-0.10;77.57
75855;BME280;64502;59.976;30.316;2023-12-29T11:14:32;99655.63;;;-0.08;77.67
75855;BME280;64502;59.976;30.316;2023-12-29T11:17:00;99657.34;;;-0.09;77.26
75855;BME280;64502;59.976;30.316;2023-12-29T11:19:27;99666.88;;;-0.09;77.20
75855;BME280;64502;59.976;30.316;2023-12-29T11:21:55;99662.53;;;-0.09;77.57
75855;BME280;64502;59.976;30.316;2023-12-29T11:24:21;99660.88;;;-0.11;76.90
75855;BME280;64502;59.976;30.316;2023-12-29T11:26:49;99658.28;;;-0.11;77.77
75855;BME280;64502;59.976;30.316;2023-12-29T11:29:15;99653.16;;;-0.13;76.99
75855;BME280;64502;59.976;30.316;2023-12-29T11:31:41;99649.88;;;-0.18;77.23
75855;BME280;64502;59.976;30.316;2023-12-29T11:34:12;99648.25;;;-0.22;76.92
75855;BME280;64502;59.976;30.316;2023-12-29T11:36:43;99648.53;;;-0.30;78.19
75855;BME280;64502;59.976;30.316;2023-12-29T11:39:23;99648.66;;;-0.34;77.94
75855;BME280;64502;59.976;30.316;2023-12-29T11:42:07;99650.34;;;-0.33;77.85
75855;BME280;64502;59.976;30.316;2023-12-29T11:44:37;99646.81;;;-0.31;77.86
75855;BME280;64502;59.976;30.316;2023-12-29T11:47:03;99645.16;;;-0.33;77.68
75855;BME280;64502;59.976;30.316;2023-12-29T11:49:57;99641.63;;;-0.31;77.89
75855;BME280;64502;59.976;30.316;2023-12-29T11:52:42;99621.72;;;-0.30;77.49
75855;BME280;64502;59.976;30.316;2023-12-29T11:55:13;99634.00;;;-0.35;77.94
75855;BME280;64502;59.976;30.316;2023-12-29T11:57:40;99637.66;;;-0.42;77.77
75855;BME280;64502;59.976;30.316;2023-12-29T12:00:07;99630.03;;;-0.47;77.50
75855;BME280;64502;59.976;30.316;2023-12-29T12:02:33;99632.69;;;-0.49;78.19
75855;BME280;64502;59.976;30.316;2023-12-29T12:04:59;99626.78;;;-0.54;78.15
75855;BME280;64502;59.976;30.316;2023-12-29T12:09:50;99622.88;;;-0.67;78.39
75855;BME280;64502;59.976;30.316;2023-12-29T12:12:41;99609.88;;;-0.65;78.71
75855;BME280;64502;59.976;30.316;2023-12-29T12:17:58;99590.03;;;-0.67;78.92
75855;BME280;64502;59.976;30.316;2023-12-29T12:20:25;99579.63;;;-0.65;79.33
75855;BME280;64502;59.976;30.316;2023-12-29T12:25:27;99589.06;;;-0.62;78.39
75855;BME280;64502;59.976;30.316;2023-12-29T12:27:53;99588.19;;;-0.63;78.62
75855;BME280;64502;59.976;30.316;2023-12-29T12:30:20;99580.47;;;-0.64;78.50
75855;BME280;64502;59.976;30.316;2023-12-29T12:32:59;99578.69;;;-0.62;78.62
75855;BME280;64502;59.976;30.316;2023-12-29T12:35:25;99575.22;;;-0.63;78.70
75855;BME280;64502;59.976;30.316;2023-12-29T12:40:38;99588.06;;;-0.58;78.84
75855;BME280;64502;59.976;30.316;2023-12-29T12:43:04;99579.44;;;-0.59;78.40
75855;BME280;64502;59.976;30.316;2023-12-29T12:45:34;99578.53;;;-0.58;78.12
75855;BME280;64502;59.976;30.316;2023-12-29T12:48:09;99589.81;;;-0.59;78.47
75855;BME280;64502;59.976;30.316;2023-12-29T12:50:43;99602.75;;;-0.59;78.68
75855;BME280;64502;59.976;30.316;2023-12-29T12:53:12;99605.38;;;-0.60;78.93
75855;BME280;64502;59.976;30.316;2023-12-29T12:55:40;99591.59;;;-0.61;79.02
75855;BME280;64502;59.976;30.316;2023-12-29T12:58:07;99588.97;;;-0.59;78.92
75855;BME280;64502;59.976;30.316;2023-12-29T13:00:33;99588.06;;;-0.58;79.08
75855;BME280;64502;59.976;30.316;2023-12-29T13:03:00;99570.75;;;-0.58;78.98